createdAt,value
2023-03-01T00:00:41.118Z,16.80
2023-03-01T00:03:07.809Z,16.00
2023-03-01T00:05:34.304Z,16.70
2023-03-01T00:08:00.696Z,16.35
2023-03-01T00:10:27.604Z,15.93
2023-03-01T00:12:54.296Z,15.40
2023-03-01T00:15:20.728Z,16.75
2023-03-01T00:17:47.170Z,15.82
2023-03-01T00:20:13.688Z,16.33
2023-03-01T00:22:40.337Z,15.75
2023-03-01T00:25:07.076Z,16.17
2023-03-01T00:27:33.514Z,17.25
2023-03-01T00:30:00.041Z,16.08
2023-03-01T00:32:26.871Z,16.80
2023-03-01T00:34:56.287Z,16.10
2023-03-01T00:37:23.069Z,15.65
2023-03-01T00:39:49.507Z,15.38
2023-03-01T00:42:16.520Z,16.55
2023-03-01T00:44:43.115Z,16.42
2023-03-01T00:47:09.821Z,16.00
2023-03-01T00:49:36.400Z,16.17
2023-03-01T00:52:02.833Z,17.10
2023-03-01T00:54:29.229Z,16.05
2023-03-01T00:56:55.672Z,16.25
2023-03-01T00:59:22.121Z,15.93
2023-03-01T01:01:48.567Z,15.60
2023-03-01T01:04:15.236Z,15.98
2023-03-01T01:06:43.575Z,16.40
2023-03-01T01:09:17.889Z,15.48
2023-03-01T01:11:45.606Z,15.88
2023-03-01T01:14:12.105Z,15.15
2023-03-01T01:16:38.596Z,15.80
2023-03-01T01:19:05.250Z,15.80
2023-03-01T01:21:31.690Z,15.93
2023-03-01T01:23:58.429Z,14.95
2023-03-01T01:26:26.968Z,14.73
2023-03-01T01:28:53.830Z,14.60
2023-03-01T01:31:20.701Z,15.25
2023-03-01T01:33:47.341Z,14.90
2023-03-01T01:36:13.875Z,14.55
2023-03-01T01:38:40.468Z,15.30
2023-03-01T01:41:07.121Z,15.13
2023-03-01T01:43:38.053Z,14.73
2023-03-01T01:46:16.507Z,14.68
2023-03-01T01:48:44.765Z,14.25
2023-03-01T01:51:13.606Z,13.77
2023-03-01T01:53:41.038Z,14.65
2023-03-01T01:56:08.707Z,14.07
2023-03-01T01:58:35.253Z,14.32
2023-03-01T02:01:02.727Z,14.25
2023-03-01T02:03:34.313Z,13.55
2023-03-01T02:06:20.222Z,15.13
2023-03-01T02:08:47.921Z,14.30
2023-03-01T02:11:15.681Z,14.88
2023-03-01T02:13:42.614Z,15.02
2023-03-01T02:16:10.149Z,14.40
2023-03-01T02:18:36.614Z,13.50
2023-03-01T02:21:18.281Z,14.35
2023-03-01T02:23:44.780Z,14.03
2023-03-01T02:26:17.450Z,13.38
2023-03-01T02:28:44.075Z,14.38
2023-03-01T02:31:30.623Z,13.43
2023-03-01T02:33:57.770Z,14.35
2023-03-01T02:36:26.366Z,13.77
2023-03-01T02:38:54.699Z,13.68
2023-03-01T02:41:21.694Z,14.30
2023-03-01T02:43:48.337Z,14.02
2023-03-01T02:46:19.119Z,13.85
2023-03-01T02:48:47.244Z,13.23
2023-03-01T02:51:32.423Z,14.25
2023-03-01T02:54:14.036Z,13.18
2023-03-01T02:56:40.570Z,13.70
2023-03-01T02:59:07.510Z,13.45
2023-03-01T03:01:39.961Z,12.82
2023-03-01T03:06:33.066Z,13.45
2023-03-01T03:09:00.034Z,12.93
2023-03-01T03:11:26.727Z,12.30
2023-03-01T03:13:53.178Z,13.35
2023-03-01T03:16:20.208Z,12.90
2023-03-01T03:18:47.072Z,12.60
2023-03-01T03:21:13.988Z,12.30
2023-03-01T03:23:40.386Z,13.02
2023-03-01T03:26:06.901Z,12.45
2023-03-01T03:28:33.751Z,12.40
2023-03-01T03:31:04.515Z,12.82
2023-03-01T03:33:31.627Z,12.45
2023-03-01T03:35:58.047Z,12.48
2023-03-01T03:38:24.650Z,12.60
2023-03-01T03:41:03.515Z,12.07
2023-03-01T03:43:31.449Z,12.30
2023-03-01T03:46:00.887Z,12.45
2023-03-01T03:48:27.931Z,11.93
2023-03-01T03:50:55.527Z,12.25
2023-03-01T03:53:22.898Z,12.40
2023-03-01T03:55:52.692Z,12.30
2023-03-01T03:58:20.878Z,12.80
2023-03-01T04:00:48.405Z,12.63
2023-03-01T04:03:15.827Z,12.50
2023-03-01T04:05:42.335Z,12.98
2023-03-01T04:08:09.489Z,13.30
2023-03-01T04:10:38.375Z,12.43
2023-03-01T04:13:05.497Z,13.02
2023-03-01T04:15:33.500Z,12.55
2023-03-01T04:18:00.453Z,12.65
2023-03-01T04:20:29.414Z,12.85
2023-03-01T04:22:59.859Z,12.05
2023-03-01T04:25:26.507Z,12.25
2023-03-01T04:27:53.002Z,12.68
2023-03-01T04:30:19.511Z,12.70
2023-03-01T04:32:46.022Z,12.60
2023-03-01T04:35:12.474Z,12.00
2023-03-01T04:37:38.919Z,13.13
2023-03-01T04:40:17.391Z,12.63
2023-03-01T04:42:44.026Z,12.27
2023-03-01T04:45:16.521Z,13.05
2023-03-01T04:47:45.255Z,12.50
2023-03-01T04:50:12.440Z,12.27
2023-03-01T04:52:39.217Z,12.50
2023-03-01T04:55:05.891Z,12.25
2023-03-01T04:57:32.315Z,12.82
2023-03-01T04:59:58.774Z,11.30
2023-03-01T05:02:25.423Z,11.23
2023-03-01T05:04:51.961Z,12.55
2023-03-01T05:07:21.464Z,12.52
2023-03-01T05:09:47.909Z,12.25
2023-03-01T05:12:14.819Z,11.35
2023-03-01T05:14:41.768Z,11.70
2023-03-01T05:17:08.309Z,11.52
2023-03-01T05:19:34.845Z,11.88
2023-03-01T05:22:07.303Z,11.07
2023-03-01T05:27:00.692Z,11.65
2023-03-01T05:29:27.970Z,11.57
2023-03-01T05:31:55.352Z,11.70
2023-03-01T05:34:26.369Z,11.10
2023-03-01T05:36:55.727Z,11.05
2023-03-01T05:39:23.509Z,11.18
2023-03-01T05:41:53.359Z,10.70
2023-03-01T05:44:19.804Z,11.73
2023-03-01T05:46:46.231Z,11.23
2023-03-01T05:49:14.393Z,11.52
2023-03-01T05:51:42.457Z,11.23
2023-03-01T05:54:09.069Z,10.63
2023-03-01T05:56:35.836Z,10.25
2023-03-01T05:59:02.988Z,10.90
2023-03-01T06:01:30.310Z,10.27
2023-03-01T06:03:57.707Z,10.20
2023-03-01T06:06:25.021Z,10.40
2023-03-01T06:08:51.665Z,10.38
2023-03-01T06:11:18.182Z,10.85
2023-03-01T06:13:45.228Z,10.02
2023-03-01T06:16:12.135Z,10.55
2023-03-01T06:18:39.052Z,10.63
2023-03-01T06:21:05.950Z,11.05
2023-03-01T06:23:32.954Z,10.32
2023-03-01T06:25:59.418Z,10.82
2023-03-01T06:28:25.853Z,11.35
2023-03-01T06:30:52.805Z,10.52
2023-03-01T06:33:21.041Z,10.60
2023-03-01T06:35:48.082Z,10.15
2023-03-01T06:38:19.739Z,11.57
2023-03-01T06:40:46.304Z,11.80
2023-03-01T06:43:13.199Z,11.50
2023-03-01T06:45:39.664Z,11.15
2023-03-01T06:48:06.978Z,10.90
2023-03-01T06:50:34.130Z,10.85
2023-03-01T06:53:01.037Z,10.15
2023-03-01T06:55:27.510Z,10.68
2023-03-01T06:57:57.471Z,10.80
2023-03-01T07:00:24.221Z,10.48
2023-03-01T07:02:50.801Z,10.50
2023-03-01T07:05:17.292Z,11.60
2023-03-01T07:07:43.860Z,11.00
2023-03-01T07:10:10.664Z,11.50
2023-03-01T07:12:37.077Z,10.68
2023-03-01T07:15:04.713Z,10.85
2023-03-01T07:17:31.105Z,10.50
2023-03-01T07:19:57.755Z,9.98
2023-03-01T07:22:27.218Z,10.88
2023-03-01T07:24:53.580Z,11.32
2023-03-01T07:27:19.956Z,10.65
2023-03-01T07:29:46.319Z,11.50
2023-03-01T07:32:13.068Z,10.70
2023-03-01T07:34:39.567Z,11.55
2023-03-01T07:37:05.967Z,11.10
2023-03-01T07:39:32.380Z,11.65
2023-03-01T07:41:58.847Z,11.32
2023-03-01T07:44:25.357Z,10.75
2023-03-01T07:46:53.431Z,10.25
2023-03-01T07:49:19.883Z,11.07
2023-03-01T07:51:46.242Z,10.40
2023-03-01T07:54:12.635Z,10.23
2023-03-01T07:56:39.022Z,9.55
2023-03-01T07:59:05.560Z,10.20
2023-03-01T08:01:32.047Z,10.02
2023-03-01T08:03:58.621Z,10.50
2023-03-01T08:06:25.054Z,10.38
2023-03-01T08:08:51.509Z,10.25
2023-03-01T08:11:18.000Z,10.20
2023-03-01T08:13:44.956Z,9.82
2023-03-01T08:16:15.570Z,10.45
2023-03-01T08:18:42.651Z,9.82
2023-03-01T08:21:10.602Z,9.48
2023-03-01T08:23:37.059Z,9.45
2023-03-01T08:26:08.254Z,8.98
2023-03-01T08:28:34.950Z,9.77
2023-03-01T08:31:01.391Z,10.00
2023-03-01T08:33:27.937Z,9.60
2023-03-01T08:36:02.614Z,9.10
2023-03-01T08:38:29.211Z,9.65
2023-03-01T08:40:55.607Z,9.35
2023-03-01T08:43:22.857Z,9.07
2023-03-01T08:45:49.596Z,9.82
2023-03-01T08:48:16.084Z,9.25
2023-03-01T08:50:42.588Z,9.23
2023-03-01T08:53:09.071Z,9.93
2023-03-01T08:55:35.747Z,9.50
2023-03-01T08:58:02.205Z,9.60
2023-03-01T09:00:29.004Z,9.23
2023-03-01T09:02:55.501Z,9.68
2023-03-01T09:05:21.950Z,9.25
2023-03-01T09:07:48.376Z,9.48
2023-03-01T09:10:14.781Z,9.65
2023-03-01T09:12:41.217Z,9.90
2023-03-01T09:15:07.963Z,9.60
2023-03-01T09:17:34.381Z,8.63
2023-03-01T09:20:00.869Z,9.05
2023-03-01T09:22:27.268Z,9.50
2023-03-01T09:24:53.697Z,8.80
2023-03-01T09:27:20.701Z,8.75
2023-03-01T09:29:47.106Z,8.68
2023-03-01T09:32:13.543Z,8.18
2023-03-01T09:35:00.088Z,8.43
2023-03-01T09:37:27.759Z,7.90
2023-03-01T09:39:54.188Z,7.93
2023-03-01T09:42:20.666Z,7.80
2023-03-01T09:44:51.916Z,7.50
2023-03-01T09:47:18.372Z,7.53
2023-03-01T09:49:49.747Z,7.43
2023-03-01T09:52:26.460Z,7.30
2023-03-01T09:54:55.228Z,7.00
2023-03-01T09:57:26.557Z,7.28
2023-03-01T09:59:52.978Z,7.35
2023-03-01T10:02:19.331Z,6.80
2023-03-01T10:04:48.779Z,6.75
2023-03-01T10:07:18.112Z,6.72
2023-03-01T10:09:45.770Z,6.72
2023-03-01T10:12:17.744Z,6.82
2023-03-01T10:15:00.279Z,6.60
2023-03-01T10:19:52.899Z,6.30
2023-03-01T10:22:24.249Z,6.43
2023-03-01T10:24:54.700Z,6.45
2023-03-01T10:27:24.552Z,6.55
2023-03-01T10:30:07.155Z,6.18
2023-03-01T10:34:59.860Z,5.43
2023-03-01T10:37:28.277Z,5.50
2023-03-01T10:39:57.515Z,5.45
2023-03-01T10:42:27.212Z,4.82
2023-03-01T10:44:53.639Z,4.38
2023-03-01T10:47:27.768Z,4.25
2023-03-01T10:50:02.259Z,3.92
2023-03-01T10:52:38.723Z,3.92
2023-03-01T10:55:24.249Z,4.00
2023-03-01T10:57:51.348Z,3.75
2023-03-01T11:00:20.035Z,4.32
2023-03-01T11:03:03.364Z,4.15
2023-03-01T11:05:31.427Z,3.72
2023-03-01T11:07:59.258Z,3.70
2023-03-01T11:10:30.345Z,3.60
2023-03-01T11:13:16.060Z,3.85
2023-03-01T11:15:42.901Z,3.90
2023-03-01T11:18:20.146Z,3.75
2023-03-01T11:20:47.209Z,4.15
2023-03-01T11:23:14.387Z,3.47
2023-03-01T11:25:42.828Z,4.28
2023-03-01T11:28:13.382Z,3.70
2023-03-01T11:30:42.144Z,4.13
2023-03-01T11:33:17.007Z,3.75
2023-03-01T11:35:51.526Z,3.60
2023-03-01T11:38:27.961Z,3.72
2023-03-01T11:40:56.117Z,3.58
2023-03-01T11:43:22.625Z,4.38
2023-03-01T11:46:11.219Z,3.88
2023-03-01T11:48:50.114Z,3.70
2023-03-01T11:51:26.122Z,3.70
2023-03-01T11:53:58.317Z,3.90
2023-03-01T11:56:39.964Z,4.03
2023-03-01T11:59:25.169Z,3.97
2023-03-01T12:02:10.533Z,4.07
2023-03-01T12:04:57.021Z,3.47
2023-03-01T12:07:32.827Z,4.10
2023-03-01T12:10:08.966Z,3.80
2023-03-01T12:12:58.886Z,3.70
2023-03-01T12:15:40.194Z,3.70
2023-03-01T12:18:12.354Z,3.72
2023-03-01T12:20:50.829Z,3.90
2023-03-01T12:23:44.255Z,3.60
2023-03-01T12:26:14.773Z,3.38
2023-03-01T12:28:49.573Z,3.47
2023-03-01T12:31:45.458Z,3.30
2023-03-01T12:34:23.942Z,3.47
2023-03-01T12:37:03.583Z,3.40
2023-03-01T12:39:36.033Z,3.50
2023-03-01T12:44:41.284Z,3.58
2023-03-01T12:47:15.196Z,3.47
2023-03-01T12:49:46.334Z,3.20
2023-03-01T12:52:17.289Z,3.42
2023-03-01T12:54:43.688Z,3.20
2023-03-01T12:57:15.279Z,3.53
2023-03-01T12:59:57.050Z,3.20
2023-03-01T13:02:26.573Z,3.13
2023-03-01T13:04:59.293Z,3.25
2023-03-01T13:07:37.725Z,3.22
2023-03-01T13:10:23.147Z,3.10
2023-03-01T13:12:52.660Z,3.10
2023-03-01T13:15:25.169Z,2.90
2023-03-01T13:17:53.395Z,3.20
2023-03-01T13:20:21.498Z,3.20
2023-03-01T13:22:54.753Z,3.65
2023-03-01T13:25:24.317Z,3.38
2023-03-01T13:27:52.321Z,3.15
2023-03-01T13:30:37.952Z,3.00
2023-03-01T13:33:27.668Z,3.20
2023-03-01T13:35:58.735Z,2.83
2023-03-01T13:38:44.005Z,3.20
2023-03-01T13:41:10.481Z,2.80
2023-03-01T13:43:41.786Z,3.40
2023-03-01T13:46:12.201Z,2.90
2023-03-01T13:48:39.211Z,2.83
2023-03-01T13:51:11.474Z,2.80
2023-03-01T13:53:41.522Z,3.00
2023-03-01T13:56:09.471Z,3.10
2023-03-01T13:58:46.905Z,3.28
2023-03-01T14:01:27.364Z,2.70
2023-03-01T14:03:54.454Z,2.85
2023-03-01T14:06:22.315Z,2.78
2023-03-01T14:08:50.586Z,2.88
2023-03-01T14:11:25.931Z,3.20
2023-03-01T14:13:58.840Z,3.08
2023-03-01T14:16:34.521Z,2.70
2023-03-01T14:19:32.558Z,2.85
2023-03-01T14:22:15.782Z,3.00
2023-03-01T14:24:47.429Z,3.00
2023-03-01T14:27:14.762Z,2.80
2023-03-01T14:29:41.556Z,2.97
2023-03-01T14:32:12.565Z,3.00
2023-03-01T14:34:43.431Z,2.78
2023-03-01T14:37:18.619Z,3.10
2023-03-01T14:39:45.039Z,2.60
2023-03-01T14:42:15.803Z,2.88
2023-03-01T14:44:44.207Z,2.30
2023-03-01T14:47:13.093Z,2.38
2023-03-01T14:49:39.558Z,2.80
2023-03-01T14:52:07.107Z,3.13
2023-03-01T14:54:33.537Z,2.53
2023-03-01T14:57:00.890Z,3.00
2023-03-01T14:59:27.345Z,2.80
2023-03-01T15:01:55.542Z,2.45
2023-03-01T15:04:23.102Z,2.80
2023-03-01T15:06:51.802Z,2.65
2023-03-01T15:09:18.480Z,2.90
2023-03-01T15:11:45.169Z,2.60
2023-03-01T15:14:40.794Z,2.63
2023-03-01T15:17:20.860Z,2.80
2023-03-01T15:19:48.709Z,2.80
2023-03-01T15:22:18.211Z,2.70
2023-03-01T15:24:48.797Z,2.60
2023-03-01T15:27:16.738Z,2.65
2023-03-01T15:29:48.924Z,2.70
2023-03-01T15:32:24.524Z,2.63
2023-03-01T15:34:51.245Z,2.58
2023-03-01T15:37:36.417Z,2.80
2023-03-01T15:40:05.296Z,2.53
2023-03-01T15:42:31.702Z,2.58
2023-03-01T15:45:11.252Z,2.83
2023-03-01T15:47:40.134Z,2.72
2023-03-01T15:50:07.041Z,2.50
2023-03-01T15:52:40.484Z,2.92
2023-03-01T15:55:07.947Z,2.58
2023-03-01T15:57:34.414Z,3.10
2023-03-01T16:00:00.984Z,2.83
2023-03-01T16:02:27.612Z,2.72
2023-03-01T16:04:54.863Z,2.65
2023-03-01T16:07:21.373Z,2.88
2023-03-01T16:09:47.866Z,2.80
2023-03-01T16:12:15.456Z,2.60
2023-03-01T16:14:41.873Z,2.70
2023-03-01T16:17:11.066Z,2.80
2023-03-01T16:19:38.633Z,2.88
2023-03-01T16:22:05.382Z,2.67
2023-03-01T16:24:32.180Z,2.38
2023-03-01T16:26:58.635Z,2.67
2023-03-01T16:29:25.124Z,2.97
2023-03-01T16:31:52.024Z,2.58
2023-03-01T16:34:18.617Z,2.50
2023-03-01T16:36:45.114Z,2.58
2023-03-01T16:39:11.580Z,2.58
2023-03-01T16:41:37.962Z,2.60
2023-03-01T16:44:04.720Z,2.88
2023-03-01T16:46:31.340Z,2.65
2023-03-01T16:48:57.831Z,2.60
2023-03-01T16:51:24.664Z,2.95
2023-03-01T16:53:51.439Z,2.78
2023-03-01T16:56:18.465Z,3.05
2023-03-01T16:58:44.998Z,2.92
2023-03-01T17:01:18.977Z,3.08
2023-03-01T17:03:47.254Z,2.90
2023-03-01T17:06:16.097Z,2.70
2023-03-01T17:08:42.478Z,3.25
2023-03-01T17:11:10.446Z,2.85
2023-03-01T17:13:37.669Z,3.55
2023-03-01T17:16:07.960Z,3.10
2023-03-01T17:18:34.652Z,2.97
2023-03-01T17:21:01.579Z,3.15
2023-03-01T17:23:29.975Z,3.38
2023-03-01T17:25:56.529Z,3.45
2023-03-01T17:28:23.712Z,3.40
2023-03-01T17:30:50.166Z,3.35
2023-03-01T17:33:16.973Z,3.30
2023-03-01T17:35:46.260Z,3.47
2023-03-01T17:38:13.607Z,3.42
2023-03-01T17:40:40.133Z,2.90
2023-03-01T17:43:06.692Z,3.13
2023-03-01T17:45:33.233Z,3.10
2023-03-01T17:47:59.793Z,2.90
2023-03-01T17:50:26.242Z,2.95
2023-03-01T17:52:52.682Z,3.72
2023-03-01T17:55:19.217Z,3.80
2023-03-01T17:57:45.609Z,3.75
2023-03-01T18:00:12.839Z,3.53
2023-03-01T18:02:39.569Z,4.03
2023-03-01T18:05:06.331Z,4.38
2023-03-01T18:07:32.762Z,4.40
2023-03-01T18:09:59.160Z,4.70
2023-03-01T18:12:25.605Z,4.97
2023-03-01T18:14:55.381Z,4.45
2023-03-01T18:17:23.810Z,4.78
2023-03-01T18:19:53.915Z,4.75
2023-03-01T18:22:20.332Z,5.32
2023-03-01T18:24:46.742Z,5.57
2023-03-01T18:27:13.150Z,5.90
2023-03-01T18:29:39.554Z,5.35
2023-03-01T18:32:06.177Z,5.82
2023-03-01T18:34:33.502Z,6.45
2023-03-01T18:37:09.237Z,6.65
2023-03-01T18:39:36.405Z,6.35
2023-03-01T18:42:03.907Z,6.88
2023-03-01T18:44:30.309Z,7.05
2023-03-01T18:46:58.381Z,6.82
2023-03-01T18:49:25.886Z,7.75
2023-03-01T18:51:52.695Z,8.13
2023-03-01T18:54:19.491Z,8.50
2023-03-01T18:56:46.156Z,8.27
2023-03-01T18:59:12.714Z,8.05
2023-03-01T19:01:39.523Z,8.50
2023-03-01T19:04:06.520Z,9.43
2023-03-01T19:06:35.119Z,8.95
2023-03-01T19:09:02.148Z,9.75
2023-03-01T19:11:30.887Z,9.30
2023-03-01T19:13:58.738Z,9.23
2023-03-01T19:16:28.613Z,9.23
2023-03-01T19:18:55.777Z,9.70
2023-03-01T19:21:23.050Z,10.07
2023-03-01T19:23:49.566Z,10.55
2023-03-01T19:26:17.310Z,10.50
2023-03-01T19:28:44.356Z,10.15
2023-03-01T19:31:12.420Z,10.40
2023-03-01T19:33:40.341Z,10.45
2023-03-01T19:36:08.515Z,10.75
2023-03-01T19:38:35.265Z,11.10
2023-03-01T19:41:05.193Z,10.70
2023-03-01T19:43:31.756Z,10.65
2023-03-01T19:45:58.190Z,11.27
2023-03-01T19:48:24.636Z,10.87
2023-03-01T19:50:51.929Z,11.60
2023-03-01T19:53:18.934Z,11.50
2023-03-01T19:55:45.615Z,11.80
2023-03-01T19:58:12.543Z,12.55
2023-03-01T20:00:39.424Z,11.40
2023-03-01T20:03:06.032Z,12.77
2023-03-01T20:05:36.776Z,13.68
2023-03-01T20:08:04.024Z,12.85
2023-03-01T20:10:30.931Z,14.30
2023-03-01T20:12:57.357Z,14.38
2023-03-01T20:15:23.861Z,15.40
2023-03-01T20:17:50.247Z,14.98
2023-03-01T20:20:16.808Z,15.80
2023-03-01T20:22:43.333Z,15.65
2023-03-01T20:25:10.346Z,15.65
2023-03-01T20:27:36.761Z,17.27
2023-03-01T20:30:03.295Z,16.73
2023-03-01T20:32:30.530Z,15.77
2023-03-01T20:34:57.019Z,16.55
2023-03-01T20:37:23.451Z,16.48
2023-03-01T20:39:49.894Z,17.50
2023-03-01T20:42:16.732Z,17.70
2023-03-01T20:44:44.445Z,17.40
2023-03-01T20:47:11.277Z,16.08
2023-03-01T20:49:37.781Z,17.77
2023-03-01T20:52:04.273Z,16.80
2023-03-01T20:54:30.820Z,17.88
2023-03-01T20:56:57.373Z,17.38
2023-03-01T20:59:24.167Z,17.35
2023-03-01T21:01:50.874Z,16.70
2023-03-01T21:04:18.085Z,17.95
2023-03-01T21:06:45.129Z,16.33
2023-03-01T21:09:11.565Z,17.05
2023-03-01T21:11:38.269Z,18.20
2023-03-01T21:14:07.631Z,17.52
2023-03-01T21:16:35.348Z,17.00
2023-03-01T21:19:02.868Z,18.88
2023-03-01T21:21:29.452Z,18.08
2023-03-01T21:23:56.125Z,19.73
2023-03-01T21:26:26.139Z,19.67
2023-03-01T21:29:01.366Z,19.23
2023-03-01T21:31:29.262Z,20.25
2023-03-01T21:33:56.609Z,20.77
2023-03-01T21:36:24.088Z,21.60
2023-03-01T21:38:51.177Z,20.90
2023-03-01T21:41:19.133Z,21.98
2023-03-01T21:43:46.670Z,21.58
2023-03-01T21:46:14.624Z,22.30
2023-03-01T21:48:44.146Z,22.65
2023-03-01T21:51:12.242Z,23.52
2023-03-01T21:53:38.874Z,23.73
2023-03-01T21:56:05.505Z,24.60
2023-03-01T21:58:31.984Z,23.70
2023-03-01T22:01:05.662Z,24.38
2023-03-01T22:03:32.109Z,26.70
2023-03-01T22:05:59.804Z,26.23
2023-03-01T22:08:27.116Z,25.52
2023-03-01T22:10:53.577Z,27.42
2023-03-01T22:13:20.456Z,26.52
2023-03-01T22:15:47.097Z,27.13
2023-03-01T22:18:13.761Z,27.48
2023-03-01T22:20:40.748Z,27.63
2023-03-01T22:23:07.504Z,27.17
2023-03-01T22:25:33.912Z,28.23
2023-03-01T22:28:00.356Z,26.58
2023-03-01T22:30:26.833Z,28.95
2023-03-01T22:32:53.529Z,28.25
2023-03-01T22:35:20.191Z,27.13
2023-03-01T22:37:46.641Z,27.15
2023-03-01T22:40:13.070Z,27.65
2023-03-01T22:42:39.555Z,27.48
2023-03-01T22:45:06.106Z,27.45
2023-03-01T22:47:32.583Z,26.65
2023-03-01T22:49:59.021Z,28.15
2023-03-01T22:52:25.394Z,26.88
2023-03-01T22:54:53.868Z,27.92
2023-03-01T22:57:20.348Z,27.08
2023-03-01T22:59:46.746Z,27.20
2023-03-01T23:02:13.261Z,26.88
2023-03-01T23:04:39.731Z,27.15
2023-03-01T23:07:06.145Z,27.30
2023-03-01T23:09:34.391Z,26.45
2023-03-01T23:12:01.770Z,25.13
2023-03-01T23:14:30.064Z,26.23
2023-03-01T23:16:56.924Z,26.92
2023-03-01T23:19:23.622Z,26.30
2023-03-01T23:21:54.473Z,25.88
2023-03-01T23:24:22.335Z,25.95
2023-03-01T23:26:55.234Z,25.92
2023-03-01T23:29:22.190Z,26.05
2023-03-01T23:31:48.640Z,26.42
2023-03-01T23:34:15.124Z,26.38
2023-03-01T23:36:45.051Z,25.00
2023-03-01T23:39:12.312Z,25.58
2023-03-01T23:41:39.082Z,25.63
2023-03-01T23:44:06.095Z,25.05
2023-03-01T23:46:34.437Z,25.67
2023-03-01T23:49:01.924Z,24.33
2023-03-01T23:51:28.507Z,24.10
2023-03-01T23:53:56.732Z,24.48
2023-03-01T23:56:27.380Z,24.02
2023-03-01T23:58:54.580Z,23.98
